Time;durP1;ratioP1;P1;durP2;ratioP2;P2;SDS_P1;SDS_P2;PMS_P1;PMS_P2;Temp;Humidity;BMP_temperature;BMP_pressure;BME280_temperature;BME280_humidity;BME280_pressure;Samples;Min_cycle;Max_cycle;Signal;HPM_P1;HPM_P2
2024/02/20 00:01:10;;;;;;;;;;;15.70;69.60;;;;;;5035730;28;19913;-77
2024/02/20 00:03:36;;;;;;;;;;;15.70;69.10;;;;;;5035335;28;19921;-77
2024/02/20 00:06:03;;;;;;;;;;;15.50;69.50;;;;;;5035603;28;19929;-77
2024/02/20 00:08:29;;;;;;;;;;;15.80;69.30;;;;;;5035658;28;19909;-77
2024/02/20 00:10:56;;;;;;;;;;;15.70;69.60;;;;;;5035513;28;19909;-77
2024/02/20 00:13:22;;;;;;;;;;;15.80;69.40;;;;;;5035464;28;19955;-77
2024/02/20 00:15:48;;;;;;;;;;;15.80;69.50;;;;;;5035889;28;19917;-71
2024/02/20 00:18:14;;;;;;;;;;;16.10;69.60;;;;;;5035384;28;20272;-71
2024/02/20 00:20:42;;;;;;;;;;;15.80;69.50;;;;;;5035015;28;19913;-71
2024/02/20 00:23:10;;;;;;;;;;;15.80;69.50;;;;;;5035182;28;19910;-71
2024/02/20 00:25:36;;;;;;;;;;;15.80;69.50;;;;;;5035002;28;19956;-71
2024/02/20 00:28:02;;;;;;;;;;;15.70;69.60;;;;;;5035261;28;19910;-71
2024/02/20 00:30:27;;;;;;;;;;;15.80;69.40;;;;;;5035073;28;19917;-71
2024/02/20 00:32:53;;;;;;;;;;;15.80;69.40;;;;;;5017187;28;20423;-71
2024/02/20 00:35:19;;;;;;;;;;;15.80;69.50;;;;;;5034962;28;19988;-71
2024/02/20 00:37:45;;;;;;;;;;;15.80;69.60;;;;;;5035017;28;19944;-71
2024/02/20 00:40:11;;;;;;;;;;;15.80;69.40;;;;;;5034924;28;20350;-71
2024/02/20 00:42:38;;;;;;;;;;;16.20;69.00;;;;;;5034868;28;19938;-71
2024/02/20 00:45:04;;;;;;;;;;;15.80;69.40;;;;;;5035324;28;20347;-71
2024/02/20 00:47:30;;;;;;;;;;;15.90;68.00;;;;;;5034488;28;20000;-71
2024/02/20 00:49:55;;;;;;;;;;;15.80;69.30;;;;;;5034573;28;20026;-71
2024/02/20 00:52:21;;;;;;;;;;;15.80;69.50;;;;;;5034434;28;19916;-71
2024/02/20 00:54:46;;;;;;;;;;;15.80;69.80;;;;;;5034352;28;19995;-71
2024/02/20 00:57:12;;;;;;;;;;;15.90;69.70;;;;;;5034341;28;19913;-71
2024/02/20 00:59:38;;;;;;;;;;;15.80;69.60;;;;;;5034345;28;19916;-71
2024/02/20 01:02:04;;;;;;;;;;;15.80;69.50;;;;;;5034043;28;19917;-71
2024/02/20 01:04:29;;;;;;;;;;;15.80;69.90;;;;;;5034349;28;19909;-71
2024/02/20 01:06:55;;;;;;;;;;;15.90;69.90;;;;;;5034236;28;19923;-71
2024/02/20 01:09:20;;;;;;;;;;;16.00;70.10;;;;;;5033881;28;19963;-71
2024/02/20 01:11:46;;;;;;;;;;;15.80;69.90;;;;;;5034650;28;19992;-71
2024/02/20 01:14:11;;;;;;;;;;;15.80;69.80;;;;;;5034097;28;20311;-71
2024/02/20 01:16:37;;;;;;;;;;;15.80;69.90;;;;;;5033966;28;19976;-71
2024/02/20 01:19:02;;;;;;;;;;;15.80;69.80;;;;;;5033914;28;19910;-71
2024/02/20 01:21:28;;;;;;;;;;;15.80;70.00;;;;;;5033846;28;19959;-71
2024/02/20 01:23:53;;;;;;;;;;;15.80;70.00;;;;;;5033947;28;19909;-71
2024/02/20 01:26:19;;;;;;;;;;;15.80;69.90;;;;;;5033795;28;19920;-71
2024/02/20 01:28:44;;;;;;;;;;;15.90;70.10;;;;;;5033723;28;19909;-71
2024/02/20 01:31:18;;;;;;;;;;;15.90;70.10;;;;;;5033741;28;19963;-71
2024/02/20 01:33:44;;;;;;;;;;;15.80;65.50;;;;;;5033596;28;19917;-71
2024/02/20 01:36:10;;;;;;;;;;;15.80;70.00;;;;;;5033560;28;19924;-71
2024/02/20 01:38:35;;;;;;;;;;;15.20;69.50;;;;;;5033581;28;20363;-71
2024/02/20 01:41:01;;;;;;;;;;;15.80;70.10;;;;;;5034304;28;19916;-71
2024/02/20 01:43:28;;;;;;;;;;;15.90;69.80;;;;;;5033526;28;19956;-71
2024/02/20 01:45:54;;;;;;;;;;;15.90;69.80;;;;;;5034065;28;19954;-71
2024/02/20 01:48:19;;;;;;;;;;;15.90;69.90;;;;;;5033406;28;20379;-71
2024/02/20 01:50:45;;;;;;;;;;;15.90;70.10;;;;;;5033383;28;20271;-71
2024/02/20 01:53:10;;;;;;;;;;;15.80;69.80;;;;;;5033397;28;19940;-77
2024/02/20 01:55:36;;;;;;;;;;;15.70;69.70;;;;;;5033200;28;19918;-77
2024/02/20 01:58:02;;;;;;;;;;;15.90;69.70;;;;;;5033311;28;19916;-77
2024/02/20 02:00:27;;;;;;;;;;;15.80;69.80;;;;;;5033247;28;19909;-77
2024/02/20 02:02:53;;;;;;;;;;;15.90;69.50;;;;;;5032941;28;20410;-77
2024/02/20 02:05:19;;;;;;;;;;;15.90;69.50;;;;;;5033118;28;19916;-77
2024/02/20 02:07:45;;;;;;;;;;;15.80;69.70;;;;;;5033182;28;19913;-77
2024/02/20 02:10:10;;;;;;;;;;;15.80;69.60;;;;;;5033030;28;20395;-77
2024/02/20 02:12:36;;;;;;;;;;;15.80;69.80;;;;;;5033048;28;19909;-71
2024/02/20 02:15:01;;;;;;;;;;;15.80;70.00;;;;;;5015223;28;20376;-71
2024/02/20 02:17:27;;;;;;;;;;;15.90;69.90;;;;;;5032879;28;19909;-71
2024/02/20 02:19:52;;;;;;;;;;;15.90;69.90;;;;;;5014606;28;20417;-71
2024/02/20 02:22:18;;;;;;;;;;;15.80;69.80;;;;;;5032876;28;19916;-71
2024/02/20 02:24:44;;;;;;;;;;;15.90;69.90;;;;;;5032946;28;20278;-71
2024/02/20 02:27:09;;;;;;;;;;;15.90;69.90;;;;;;5033268;28;19929;-71
2024/02/20 02:29:35;;;;;;;;;;;15.90;69.80;;;;;;5032647;28;20398;-71
2024/02/20 02:32:00;;;;;;;;;;;15.80;69.90;;;;;;5032743;28;19919;-71
2024/02/20 02:34:29;;;;;;;;;;;15.90;70.00;;;;;;5032706;28;19984;-71
2024/02/20 02:36:58;;;;;;;;;;;15.90;66.20;;;;;;5032846;28;19917;-71
2024/02/20 02:39:23;;;;;;;;;;;15.90;70.70;;;;;;5032759;28;19916;-71
2024/02/20 02:41:50;;;;;;;;;;;15.90;69.90;;;;;;5032790;28;20295;-71
2024/02/20 02:44:15;;;;;;;;;;;16.00;69.90;;;;;;5032556;28;19910;-71
2024/02/20 02:46:41;;;;;;;;;;;15.90;69.90;;;;;;5032532;28;20331;-71
2024/02/20 02:49:07;;;;;;;;;;;16.00;69.80;;;;;;5032478;28;19911;-71
2024/02/20 02:51:33;;;;;;;;;;;15.90;69.70;;;;;;5032663;28;20004;-71
2024/02/20 02:53:59;;;;;;;;;;;15.90;70.00;;;;;;5032474;28;20387;-71
2024/02/20 02:56:25;;;;;;;;;;;15.90;69.90;;;;;;5032899;28;19918;-71
2024/02/20 02:58:50;;;;;;;;;;;15.90;69.70;;;;;;5032336;28;20430;-71
2024/02/20 03:01:16;;;;;;;;;;;16.00;69.30;;;;;;5032550;28;19963;-71
2024/02/20 03:03:41;;;;;;;;;;;16.00;69.80;;;;;;5032220;28;19921;-71
2024/02/20 03:06:08;;;;;;;;;;;16.00;70.00;;;;;;5032354;28;19913;-71
2024/02/20 03:08:37;;;;;;;;;;;15.90;69.70;;;;;;5032384;28;20406;-71
2024/02/20 03:11:05;;;;;;;;;;;15.70;70.00;;;;;;5032240;28;20380;-71
2024/02/20 03:13:34;;;;;;;;;;;15.90;69.70;;;;;;5032624;28;19913;-71
2024/02/20 03:16:00;;;;;;;;;;;15.90;69.90;;;;;;5032165;28;19932;-71
2024/02/20 03:18:27;;;;;;;;;;;15.90;70.00;;;;;;5032186;28;19948;-71
2024/02/20 03:20:52;;;;;;;;;;;15.90;69.80;;;;;;5032337;28;20369;-71
2024/02/20 03:23:18;;;;;;;;;;;16.00;69.70;;;;;;5032147;28;19951;-71
2024/02/20 03:25:43;;;;;;;;;;;15.90;69.90;;;;;;5032705;28;19909;-71
2024/02/20 03:28:09;;;;;;;;;;;15.90;69.80;;;;;;5032157;28;19910;-71
2024/02/20 03:30:34;;;;;;;;;;;15.90;69.60;;;;;;5032383;28;19909;-71
2024/02/20 03:33:00;;;;;;;;;;;16.20;70.00;;;;;;5035897;28;20031;-71
2024/02/20 03:35:27;;;;;;;;;;;15.90;69.80;;;;;;5036190;28;19932;-71
2024/02/20 03:37:52;;;;;;;;;;;15.90;69.60;;;;;;5035997;28;19956;-71
2024/02/20 03:40:19;;;;;;;;;;;15.90;69.80;;;;;;5035890;28;19964;-71
2024/02/20 03:42:44;;;;;;;;;;;15.90;69.70;;;;;;5036019;28;19916;-71
2024/02/20 03:45:10;;;;;;;;;;;15.90;69.70;;;;;;5035806;28;20343;-71
2024/02/20 03:47:36;;;;;;;;;;;15.90;69.40;;;;;;5035999;28;19909;-71
2024/02/20 03:50:04;;;;;;;;;;;15.90;69.70;;;;;;5035788;28;19963;-70
2024/02/20 03:52:30;;;;;;;;;;;15.90;69.30;;;;;;5036129;28;19914;-71
2024/02/20 03:54:56;;;;;;;;;;;15.90;69.60;;;;;;5035446;28;19967;-71
2024/02/20 03:57:22;;;;;;;;;;;15.90;69.80;;;;;;5035809;28;19910;-71
2024/02/20 03:59:47;;;;;;;;;;;15.90;69.70;;;;;;5035678;28;20452;-71
2024/02/20 04:02:13;;;;;;;;;;;15.80;69.10;;;;;;5035401;28;19967;-71
2024/02/20 04:04:41;;;;;;;;;;;15.90;69.60;;;;;;5035371;28;20380;-71
2024/02/20 04:07:07;;;;;;;;;;;15.90;69.60;;;;;;5035606;28;19952;-71
2024/02/20 04:09:33;;;;;;;;;;;15.80;69.50;;;;;;5035534;28;19916;-71
2024/02/20 04:12:00;;;;;;;;;;;15.90;69.70;;;;;;5034718;28;20310;-71
2024/02/20 04:14:26;;;;;;;;;;;15.80;69.70;;;;;;5035468;28;20334;-70
2024/02/20 04:16:52;;;;;;;;;;;15.80;69.50;;;;;;5035250;28;19940;-71
2024/02/20 04:19:18;;;;;;;;;;;15.80;69.70;;;;;;5035636;28;19952;-71
2024/02/20 04:21:45;;;;;;;;;;;15.90;69.70;;;;;;5035473;28;20311;-70
2024/02/20 04:24:10;;;;;;;;;;;15.80;69.60;;;;;;5035182;28;19913;-71
2024/02/20 04:26:36;;;;;;;;;;;15.80;70.10;;;;;;5034934;28;19931;-71
2024/02/20 04:29:02;;;;;;;;;;;15.80;70.00;;;;;;5034783;28;19910;-71
2024/02/20 04:31:30;;;;;;;;;;;15.80;70.00;;;;;;5035138;28;19999;-71
2024/02/20 04:33:56;;;;;;;;;;;16.00;70.10;;;;;;5035116;28;19987;-72
2024/02/20 04:36:22;;;;;;;;;;;15.80;70.10;;;;;;5034615;28;20554;-71
2024/02/20 04:38:52;;;;;;;;;;;15.90;70.20;;;;;;5034727;28;19916;-71
2024/02/20 04:41:27;;;;;;;;;;;15.90;70.30;;;;;;5034599;28;19917;-71
2024/02/20 04:43:53;;;;;;;;;;;15.80;65.80;;;;;;5034201;28;20371;-71
2024/02/20 04:46:19;;;;;;;;;;;15.90;70.50;;;;;;5034826;28;19921;-71
2024/02/20 04:48:45;;;;;;;;;;;15.90;70.50;;;;;;5034810;28;20004;-71
2024/02/20 04:51:11;;;;;;;;;;;15.80;70.20;;;;;;5034960;28;20356;-71
2024/02/20 04:53:37;;;;;;;;;;;15.80;70.40;;;;;;5034400;28;19988;-71
2024/02/20 04:56:04;;;;;;;;;;;15.80;70.50;;;;;;5034530;28;19952;-71
2024/02/20 04:58:30;;;;;;;;;;;15.90;69.30;;;;;;5034239;28;20446;-71
2024/02/20 05:00:56;;;;;;;;;;;15.90;70.40;;;;;;5034524;28;20012;-71
2024/02/20 05:03:22;;;;;;;;;;;15.90;69.90;;;;;;5034097;28;19961;-71
2024/02/20 05:05:47;;;;;;;;;;;16.00;70.50;;;;;;5034103;28;20488;-71
2024/02/20 05:08:14;;;;;;;;;;;15.70;70.60;;;;;;5034333;28;19915;-71
2024/02/20 05:10:40;;;;;;;;;;;15.90;70.40;;;;;;5034343;28;19909;-71
2024/02/20 05:13:06;;;;;;;;;;;15.90;70.40;;;;;;5033972;28;20338;-71
2024/02/20 05:15:32;;;;;;;;;;;15.90;70.60;;;;;;5033879;28;19917;-71
2024/02/20 05:17:58;;;;;;;;;;;15.90;70.60;;;;;;5034728;28;20009;-71
2024/02/20 05:20:24;;;;;;;;;;;16.00;70.80;;;;;;5034164;28;20276;-71
2024/02/20 05:22:50;;;;;;;;;;;16.00;70.50;;;;;;5034163;28;19913;-71
2024/02/20 05:25:16;;;;;;;;;;;15.90;70.50;;;;;;5034049;28;19970;-71
2024/02/20 05:27:42;;;;;;;;;;;16.00;70.90;;;;;;5033778;28;20282;-71
2024/02/20 05:30:08;;;;;;;;;;;15.90;70.80;;;;;;5034130;28;19916;-71
2024/02/20 05:32:34;;;;;;;;;;;15.90;70.10;;;;;;5033615;28;20004;-71
2024/02/20 05:35:00;;;;;;;;;;;16.00;71.00;;;;;;5033861;28;19960;-71
2024/02/20 05:37:26;;;;;;;;;;;15.90;71.10;;;;;;5033532;28;20010;-71
2024/02/20 05:39:52;;;;;;;;;;;16.00;70.90;;;;;;5033769;28;19916;-71
2024/02/20 05:42:18;;;;;;;;;;;16.00;71.10;;;;;;5033429;28;19928;-71
2024/02/20 05:44:44;;;;;;;;;;;16.20;71.10;;;;;;5033673;28;19909;-71
2024/02/20 05:47:10;;;;;;;;;;;16.00;70.90;;;;;;5034120;28;19949;-71
2024/02/20 05:49:36;;;;;;;;;;;16.10;71.00;;;;;;5033595;28;19909;-71
2024/02/20 05:52:02;;;;;;;;;;;15.90;71.00;;;;;;5033499;28;19916;-70
2024/02/20 05:54:28;;;;;;;;;;;16.00;70.90;;;;;;5032766;28;19909;-71
2024/02/20 05:56:53;;;;;;;;;;;16.00;71.20;;;;;;5033353;28;20413;-71
2024/02/20 05:59:19;;;;;;;;;;;16.00;70.60;;;;;;5033456;28;20256;-78
2024/02/20 06:01:45;;;;;;;;;;;16.10;70.80;;;;;;5015339;28;19909;-78
2024/02/20 06:04:11;;;;;;;;;;;16.00;70.70;;;;;;5033428;28;19917;-78
2024/02/20 06:06:37;;;;;;;;;;;16.20;71.00;;;;;;5033600;28;19909;-78
2024/02/20 06:09:03;;;;;;;;;;;16.00;71.20;;;;;;5033270;28;20283;-78
2024/02/20 06:11:29;;;;;;;;;;;16.10;71.00;;;;;;5033263;28;19909;-78
2024/02/20 06:13:55;;;;;;;;;;;16.00;71.20;;;;;;5033289;28;20355;-78
2024/02/20 06:16:25;;;;;;;;;;;16.10;71.00;;;;;;5033289;28;19971;-71
2024/02/20 06:18:52;;;;;;;;;;;16.00;70.80;;;;;;5033129;28;19909;-71
2024/02/20 06:21:19;;;;;;;;;;;16.00;71.30;;;;;;5033087;28;19909;-71
2024/02/20 06:23:45;;;;;;;;;;;16.00;70.70;;;;;;5033041;28;19909;-71
2024/02/20 06:26:10;;;;;;;;;;;16.00;70.90;;;;;;5032981;28;20018;-71
2024/02/20 06:28:36;;;;;;;;;;;16.00;70.80;;;;;;5032984;28;19909;-71
2024/02/20 06:31:07;;;;;;;;;;;16.00;70.60;;;;;;5032903;28;20249;-71
2024/02/20 06:33:33;;;;;;;;;;;16.00;69.00;;;;;;5033102;28;19913;-71
2024/02/20 06:35:59;;;;;;;;;;;16.00;70.80;;;;;;5032606;28;19964;-71
2024/02/20 06:38:31;;;;;;;;;;;15.90;70.80;;;;;;5032545;28;19909;-70
2024/02/20 06:40:57;;;;;;;;;;;16.00;66.30;;;;;;5032454;28;19909;-71
2024/02/20 06:43:22;;;;;;;;;;;16.00;70.40;;;;;;5033005;28;19916;-71
2024/02/20 06:45:48;;;;;;;;;;;16.00;70.80;;;;;;5032416;28;19909;-71
2024/02/20 06:48:13;;;;;;;;;;;16.00;70.70;;;;;;5032436;28;19999;-70
2024/02/20 06:50:39;;;;;;;;;;;16.00;70.50;;;;;;5032470;28;19909;-71
2024/02/20 06:53:04;;;;;;;;;;;16.00;70.70;;;;;;5032360;28;19920;-70
2024/02/20 06:55:30;;;;;;;;;;;16.00;70.20;;;;;;5032224;28;19946;-71
2024/02/20 06:57:57;;;;;;;;;;;16.00;70.50;;;;;;5032147;28;19959;-71
2024/02/20 07:00:24;;;;;;;;;;;16.00;70.60;;;;;;5032257;28;19910;-71
2024/02/20 07:02:49;;;;;;;;;;;16.10;70.00;;;;;;5031858;28;19960;-71
2024/02/20 07:05:14;;;;;;;;;;;16.00;70.50;;;;;;5032187;28;19956;-71
2024/02/20 07:07:41;;;;;;;;;;;16.10;71.40;;;;;;5035724;28;19913;-73
2024/02/20 07:10:07;;;;;;;;;;;16.00;70.60;;;;;;5036193;28;19963;-71
2024/02/20 07:12:32;;;;;;;;;;;16.30;69.90;;;;;;5036958;28;20248;-71
2024/02/20 07:15:00;;;;;;;;;;;15.90;70.40;;;;;;5036348;28;19952;-71
2024/02/20 07:17:26;;;;;;;;;;;16.00;70.50;;;;;;5036479;28;19913;-71
2024/02/20 07:19:52;;;;;;;;;;;15.90;70.20;;;;;;5035052;28;19909;-70
2024/02/20 07:22:18;;;;;;;;;;;15.80;70.40;;;;;;5035324;28;19956;-71
2024/02/20 07:24:43;;;;;;;;;;;16.20;70.50;;;;;;5035022;28;19915;-71
2024/02/20 07:27:09;;;;;;;;;;;16.00;70.30;;;;;;5035133;28;19956;-71
2024/02/20 07:29:34;;;;;;;;;;;15.90;70.40;;;;;;5035109;28;20275;-71
2024/02/20 07:32:01;;;;;;;;;;;16.00;70.30;;;;;;5035037;28;19940;-71
2024/02/20 07:34:27;;;;;;;;;;;16.00;70.20;;;;;;5035480;28;19909;-71
2024/02/20 07:36:54;;;;;;;;;;;16.00;70.50;;;;;;5035694;28;20387;-71
2024/02/20 07:39:19;;;;;;;;;;;15.90;70.00;;;;;;5035756;28;19909;-71
2024/02/20 07:41:45;;;;;;;;;;;15.90;70.50;;;;;;5036270;28;19909;-71
2024/02/20 07:44:10;;;;;;;;;;;15.90;70.70;;;;;;5035712;28;19913;-71
2024/02/20 07:46:37;;;;;;;;;;;16.00;70.70;;;;;;5035686;28;19909;-70
2024/02/20 07:49:02;;;;;;;;;;;16.00;71.10;;;;;;5035524;28;20406;-69
2024/02/20 07:51:29;;;;;;;;;;;16.00;70.70;;;;;;5035509;28;19919;-71
2024/02/20 07:53:55;;;;;;;;;;;16.00;70.60;;;;;;5035594;28;19915;-69
2024/02/20 07:56:21;;;;;;;;;;;15.90;70.90;;;;;;5035275;28;20365;-70
2024/02/20 07:58:47;;;;;;;;;;;16.00;70.90;;;;;;5035364;28;19909;-69
2024/02/20 08:01:14;;;;;;;;;;;;;;;;;;5035539;28;19917;-70
2024/02/20 08:03:39;;;;;;;;;;;16.00;70.20;;;;;;5035186;28;20378;-70
2024/02/20 08:06:05;;;;;;;;;;;16.00;70.80;;;;;;5035234;28;19955;-69
2024/02/20 08:08:31;;;;;;;;;;;16.00;70.50;;;;;;5035301;28;20280;-69
2024/02/20 08:10:56;;;;;;;;;;;16.00;70.70;;;;;;5035885;28;19909;-69
2024/02/20 08:13:23;;;;;;;;;;;16.10;70.70;;;;;;5035168;28;20343;-70
2024/02/20 08:15:48;;;;;;;;;;;15.90;70.40;;;;;;5035010;28;19924;-70
2024/02/20 08:18:14;;;;;;;;;;;16.00;70.60;;;;;;5033994;28;19909;-70
2024/02/20 08:20:39;;;;;;;;;;;16.10;70.50;;;;;;5035009;28;19916;-69
2024/02/20 08:23:05;;;;;;;;;;;16.00;70.40;;;;;;5034950;28;19909;-70
2024/02/20 08:25:30;;;;;;;;;;;16.00;70.50;;;;;;5034868;28;19959;-72
2024/02/20 08:27:56;;;;;;;;;;;16.00;70.30;;;;;;5034811;28;20033;-73
2024/02/20 08:30:25;;;;;;;;;;;16.00;70.50;;;;;;5034862;28;19913;-72
2024/02/20 08:32:50;;;;;;;;;;;16.10;70.30;;;;;;5034844;28;19925;-72
2024/02/20 08:35:17;;;;;;;;;;;16.00;70.40;;;;;;5034636;28;20338;-71
2024/02/20 08:37:43;;;;;;;;;;;16.00;70.00;;;;;;5035390;28;19972;-70
2024/02/20 08:40:09;;;;;;;;;;;16.00;70.50;;;;;;5034595;28;19909;-70
2024/02/20 08:42:34;;;;;;;;;;;16.20;69.10;;;;;;5034569;28;19910;-71
2024/02/20 08:45:03;;;;;;;;;;;16.10;70.40;;;;;;5034457;28;19913;-72
2024/02/20 08:47:29;;;;;;;;;;;16.10;70.30;;;;;;5034560;28;19913;-71
2024/02/20 08:49:54;;;;;;;;;;;16.00;70.70;;;;;;5034544;28;20444;-71
2024/02/20 08:52:20;;;;;;;;;;;16.00;70.70;;;;;;5034677;28;19920;-69
2024/02/20 08:54:46;;;;;;;;;;;16.10;70.30;;;;;;5034666;28;19909;-69
2024/02/20 08:57:11;;;;;;;;;;;16.00;70.40;;;;;;5034481;28;19917;-69
2024/02/20 08:59:37;;;;;;;;;;;16.00;70.30;;;;;;5034289;28;20402;-69
2024/02/20 09:02:03;;;;;;;;;;;16.10;70.00;;;;;;5033910;28;19975;-69
2024/02/20 09:04:29;;;;;;;;;;;16.10;70.30;;;;;;5034286;28;19959;-69
2024/02/20 09:06:54;;;;;;;;;;;16.00;70.80;;;;;;5034663;28;20395;-69
2024/02/20 09:09:23;;;;;;;;;;;16.00;69.90;;;;;;5034242;28;19913;-69
2024/02/20 09:11:51;;;;;;;;;;;16.00;66.90;;;;;;5034053;28;20323;-69
2024/02/20 09:14:17;;;;;;;;;;;16.00;67.90;;;;;;5033936;28;19960;-69
2024/02/20 09:16:44;;;;;;;;;;;16.00;70.30;;;;;;5033876;28;20025;-74
2024/02/20 09:19:10;;;;;;;;;;;16.00;70.20;;;;;;5034146;28;19909;-71
2024/02/20 09:21:35;;;;;;;;;;;16.10;70.10;;;;;;5035007;28;19955;-69
2024/02/20 09:24:01;;;;;;;;;;;16.00;70.40;;;;;;5033766;28;20339;-69
2024/02/20 09:26:27;;;;;;;;;;;16.10;69.90;;;;;;5033634;28;20017;-69
2024/02/20 09:28:52;;;;;;;;;;;16.00;69.40;;;;;;5033538;28;19935;-68
2024/02/20 09:31:18;;;;;;;;;;;16.10;70.10;;;;;;5033781;28;20458;-69
2024/02/20 09:33:44;;;;;;;;;;;16.10;69.80;;;;;;5033634;28;19916;-68
2024/02/20 09:36:09;;;;;;;;;;;16.00;70.20;;;;;;5034021;28;19967;-69
2024/02/20 09:38:35;;;;;;;;;;;16.00;70.10;;;;;;5033691;28;20252;-69
2024/02/20 09:41:01;;;;;;;;;;;16.00;69.90;;;;;;5033453;28;20278;-69
2024/02/20 09:43:27;;;;;;;;;;;16.10;70.10;;;;;;5033389;28;19909;-69
2024/02/20 09:45:53;;;;;;;;;;;16.00;69.80;;;;;;5033724;28;19913;-69
2024/02/20 09:48:19;;;;;;;;;;;16.10;70.10;;;;;;5033309;28;19943;-69
2024/02/20 09:50:47;;;;;;;;;;;16.10;70.10;;;;;;5033225;28;19909;-68
2024/02/20 09:53:13;;;;;;;;;;;16.10;70.00;;;;;;5033225;28;19909;-68
2024/02/20 09:55:39;;;;;;;;;;;16.00;69.80;;;;;;5033098;28;20394;-68
2024/02/20 09:58:04;;;;;;;;;;;16.20;69.90;;;;;;5033139;28;19951;-68
2024/02/20 10:00:30;;;;;;;;;;;16.10;69.90;;;;;;5033098;28;20280;-68
2024/02/20 10:02:59;;;;;;;;;;;16.10;69.40;;;;;;5033318;28;19932;-68
2024/02/20 10:05:25;;;;;;;;;;;16.20;70.10;;;;;;5032985;28;20051;-68
2024/02/20 10:07:58;;;;;;;;;;;16.10;69.90;;;;;;5032979;28;19913;-69
2024/02/20 10:10:25;;;;;;;;;;;16.10;65.60;;;;;;5033092;28;19999;-69
2024/02/20 10:12:57;;;;;;;;;;;16.10;69.90;;;;;;5032926;28;19913;-69
2024/02/20 10:15:23;;;;;;;;;;;16.10;65.70;;;;;;5033061;28;19917;-69
2024/02/20 10:17:56;;;;;;;;;;;16.10;69.80;;;;;;5032873;28;20291;-69
2024/02/20 10:20:22;;;;;;;;;;;16.10;69.80;;;;;;5032821;28;19909;-69
2024/02/20 10:22:48;;;;;;;;;;;16.10;69.70;;;;;;5032724;28;19910;-69
2024/02/20 10:25:13;;;;;;;;;;;16.10;69.80;;;;;;5032731;28;19967;-73
2024/02/20 10:27:39;;;;;;;;;;;16.10;70.10;;;;;;5032701;28;19916;-69
2024/02/20 10:30:05;;;;;;;;;;;16.00;69.90;;;;;;5032840;28;19915;-69
2024/02/20 10:32:36;;;;;;;;;;;16.10;68.70;;;;;;5033099;28;19976;-69
2024/02/20 10:35:02;;;;;;;;;;;16.20;70.00;;;;;;5032815;28;20383;-69
2024/02/20 10:37:28;;;;;;;;;;;16.10;70.20;;;;;;5032597;28;19958;-69
2024/02/20 10:40:03;;;;;;;;;;;16.10;69.70;;;;;;5032311;28;19909;-69
2024/02/20 10:42:30;;;;;;;;;;;16.20;66.20;;;;;;5031960;28;19971;-69
2024/02/20 10:44:56;;;;;;;;;;;16.10;69.80;;;;;;5032768;28;20295;-76
2024/02/20 10:47:22;;;;;;;;;;;16.30;69.80;;;;;;5032403;28;19909;-76
2024/02/20 10:49:49;;;;;;;;;;;16.20;69.80;;;;;;5032320;28;19909;-76
2024/02/20 10:52:15;;;;;;;;;;;16.20;69.60;;;;;;5032355;28;19909;-76
2024/02/20 10:54:44;;;;;;;;;;;16.30;70.10;;;;;;5032291;28;19996;-77
2024/02/20 10:57:10;;;;;;;;;;;16.30;69.60;;;;;;5032340;28;19924;-76
2024/02/20 10:59:38;;;;;;;;;;;16.30;69.50;;;;;;5032998;28;20008;-78
2024/02/20 11:02:03;;;;;;;;;;;16.40;68.90;;;;;;5032228;28;20343;-79
2024/02/20 11:04:30;;;;;;;;;;;16.50;69.30;;;;;;5032448;28;19955;-77
2024/02/20 11:06:55;;;;;;;;;;;16.50;69.40;;;;;;5032210;28;20334;-80
2024/02/20 11:09:25;;;;;;;;;;;16.60;69.00;;;;;;5032436;28;19909;-79
2024/02/20 11:11:50;;;;;;;;;;;16.70;68.80;;;;;;5032468;28;20035;-77
2024/02/20 11:14:29;;;;;;;;;;;16.70;69.40;;;;;;5014730;28;20439;-76
2024/02/20 11:16:54;;;;;;;;;;;16.60;64.30;;;;;;5031926;28;19917;-73
2024/02/20 11:19:24;;;;;;;;;;;16.70;68.90;;;;;;5032095;28;20011;-76
2024/02/20 11:21:50;;;;;;;;;;;16.70;64.60;;;;;;5031986;28;20025;-77
2024/02/20 11:24:16;;;;;;;;;;;16.60;69.10;;;;;;5032085;28;20004;-76
2024/02/20 11:26:44;;;;;;;;;;;16.70;69.00;;;;;;5032155;28;19910;-76
2024/02/20 11:29:10;;;;;;;;;;;16.80;69.20;;;;;;5032780;28;19945;-76
2024/02/20 11:31:36;;;;;;;;;;;16.80;69.00;;;;;;5032018;28;20456;-79
2024/02/20 11:34:01;;;;;;;;;;;16.90;68.70;;;;;;5031950;28;20007;-76
2024/02/20 11:36:27;;;;;;;;;;;16.90;68.40;;;;;;5032204;28;19963;-76
2024/02/20 11:38:57;;;;;;;;;;;17.00;68.40;;;;;;5031945;28;19910;-77
2024/02/20 11:41:22;;;;;;;;;;;17.00;64.20;;;;;;5031992;28;19909;-79
2024/02/20 11:43:58;;;;;;;;;;;17.10;68.40;;;;;;5031928;28;19916;-76
2024/02/20 11:46:23;;;;;;;;;;;17.10;68.80;;;;;;5032169;28;19910;-75
2024/02/20 11:48:49;;;;;;;;;;;17.00;68.40;;;;;;5031858;28;20008;-76
2024/02/20 11:51:17;;;;;;;;;;;17.00;68.40;;;;;;5031896;28;19916;-76
2024/02/20 11:53:42;;;;;;;;;;;17.10;68.50;;;;;;5033503;28;19948;-77
2024/02/20 11:56:08;;;;;;;;;;;16.30;67.90;;;;;;5035354;28;20011;-76
2024/02/20 11:58:33;;;;;;;;;;;17.20;67.90;;;;;;5035924;28;19910;-76
2024/02/20 12:01:02;;;;;;;;;;;17.30;68.10;;;;;;5035268;28;19910;-75
2024/02/20 12:03:29;;;;;;;;;;;17.40;67.10;;;;;;5035023;28;19921;-76
2024/02/20 12:05:59;;;;;;;;;;;17.40;67.70;;;;;;5035409;28;20000;-76
2024/02/20 12:08:30;;;;;;;;;;;17.30;67.80;;;;;;5035500;28;19972;-77
2024/02/20 12:11:03;;;;;;;;;;;17.30;67.50;;;;;;5035177;28;20317;-76
2024/02/20 12:13:29;;;;;;;;;;;17.30;67.80;;;;;;5035161;28;20388;-77
2024/02/20 12:15:55;;;;;;;;;;;17.40;67.70;;;;;;5035198;28;19956;-77
2024/02/20 12:18:25;;;;;;;;;;;17.30;67.80;;;;;;5035328;28;19921;-78
2024/02/20 12:20:51;;;;;;;;;;;17.40;63.60;;;;;;5035252;28;19920;-77
2024/02/20 12:23:20;;;;;;;;;;;17.40;67.80;;;;;;5035160;28;20303;-76
2024/02/20 12:25:46;;;;;;;;;;;17.50;67.60;;;;;;5035429;28;19972;-77
2024/02/20 12:28:12;;;;;;;;;;;17.60;67.70;;;;;;5034891;28;19921;-77
2024/02/20 12:30:41;;;;;;;;;;;17.50;67.30;;;;;;5034943;28;19916;-77
2024/02/20 12:33:07;;;;;;;;;;;17.60;63.20;;;;;;5034854;28;19909;-77
2024/02/20 12:35:32;;;;;;;;;;;17.60;67.40;;;;;;5034717;28;19917;-77
2024/02/20 12:37:58;;;;;;;;;;;17.50;67.40;;;;;;5034860;28;19915;-77
2024/02/20 12:40:25;;;;;;;;;;;17.50;67.30;;;;;;5034681;28;19909;-76
2024/02/20 12:42:51;;;;;;;;;;;17.50;67.50;;;;;;5034884;28;19920;-76
2024/02/20 12:45:16;;;;;;;;;;;17.50;67.40;;;;;;5034618;28;19909;-77
2024/02/20 12:47:42;;;;;;;;;;;17.50;67.60;;;;;;5034657;28;20413;-76
2024/02/20 12:50:07;;;;;;;;;;;17.50;67.80;;;;;;5034472;28;19909;-77
2024/02/20 12:52:33;;;;;;;;;;;17.40;67.40;;;;;;5034465;28;19956;-77
2024/02/20 12:54:58;;;;;;;;;;;17.40;68.40;;;;;;5034901;28;19913;-77
2024/02/20 12:57:24;;;;;;;;;;;17.40;68.00;;;;;;5034265;28;19917;-77
2024/02/20 12:59:50;;;;;;;;;;;17.40;68.00;;;;;;5034392;28;19916;-77
2024/02/20 13:02:16;;;;;;;;;;;17.40;68.00;;;;;;5034010;28;19921;-77
2024/02/20 13:04:42;;;;;;;;;;;16.90;67.80;;;;;;5034022;28;19917;-77
2024/02/20 13:07:08;;;;;;;;;;;17.30;68.70;;;;;;5034256;28;19963;-77
2024/02/20 13:09:33;;;;;;;;;;;17.30;68.20;;;;;;5034365;28;20303;-77
2024/02/20 13:12:04;;;;;;;;;;;17.40;68.50;;;;;;5034116;28;19920;-76
2024/02/20 13:14:29;;;;;;;;;;;17.30;65.10;;;;;;5034093;28;19909;-76
2024/02/20 13:16:55;;;;;;;;;;;17.30;68.30;;;;;;5033768;28;19924;-75
2024/02/20 13:19:20;;;;;;;;;;;17.30;68.40;;;;;;5033968;28;19956;-76
2024/02/20 13:21:46;;;;;;;;;;;17.40;68.30;;;;;;5033910;28;19913;-76
2024/02/20 13:24:11;;;;;;;;;;;17.30;68.60;;;;;;5034315;28;20411;-76
2024/02/20 13:26:37;;;;;;;;;;;17.30;68.50;;;;;;5034076;28;19910;-76
2024/02/20 13:29:03;;;;;;;;;;;17.30;68.30;;;;;;5033734;28;20392;-75
2024/02/20 13:31:29;;;;;;;;;;;17.30;68.00;;;;;;5033925;28;20283;-75
2024/02/20 13:33:54;;;;;;;;;;;17.30;68.30;;;;;;5033728;28;19911;-75
2024/02/20 13:36:20;;;;;;;;;;;17.20;68.20;;;;;;5033560;28;20005;-74
2024/02/20 13:38:46;;;;;;;;;;;17.30;68.40;;;;;;5033640;28;20012;-74
2024/02/20 13:41:12;;;;;;;;;;;17.30;68.30;;;;;;5033743;28;20008;-75
2024/02/20 13:43:40;;;;;;;;;;;17.20;68.30;;;;;;5033494;28;19951;-76
2024/02/20 13:46:06;;;;;;;;;;;17.20;67.50;;;;;;5033707;28;20284;-75
2024/02/20 13:48:32;;;;;;;;;;;17.30;68.50;;;;;;5033540;28;19909;-75
2024/02/20 13:51:01;;;;;;;;;;;17.60;68.40;;;;;;5033833;28;19905;-76
2024/02/20 13:53:27;;;;;;;;;;;17.10;65.90;;;;;;5033218;28;19909;-75
2024/02/20 13:55:53;;;;;;;;;;;17.40;68.50;;;;;;5033210;28;19962;-76
2024/02/20 13:58:18;;;;;;;;;;;17.10;68.30;;;;;;5033391;28;20011;-75
2024/02/20 14:00:44;;;;;;;;;;;17.10;68.10;;;;;;5033416;28;20449;-76
2024/02/20 14:03:10;;;;;;;;;;;17.20;67.90;;;;;;5033040;28;19921;-75
2024/02/20 14:05:35;;;;;;;;;;;17.20;68.10;;;;;;5032963;28;20295;-75
2024/02/20 14:08:01;;;;;;;;;;;17.10;68.40;;;;;;5033077;28;19916;-76
2024/02/20 14:10:27;;;;;;;;;;;17.30;68.20;;;;;;5032963;28;20005;-77
2024/02/20 14:12:53;;;;;;;;;;;17.10;68.30;;;;;;5032868;28;20391;-75